createdAt,value
2023-05-05T00:01:30.713Z,101503.81
2023-05-05T00:03:58.046Z,101500.44
2023-05-05T00:06:24.468Z,101498.25
2023-05-05T00:08:50.918Z,101495.06
2023-05-05T00:11:17.421Z,101496.00
2023-05-05T00:13:43.867Z,101497.56
2023-05-05T00:16:10.523Z,101503.56
2023-05-05T00:18:37.525Z,101507.66
2023-05-05T00:21:04.431Z,101497.16
2023-05-05T00:23:30.940Z,101501.56
2023-05-05T00:25:57.360Z,101490.09
2023-05-05T00:28:23.858Z,101484.72
2023-05-05T00:30:50.464Z,101481.38
2023-05-05T00:33:17.179Z,101481.25
2023-05-05T00:35:43.615Z,101481.59
2023-05-05T00:38:10.257Z,101475.56
2023-05-05T00:40:37.945Z,101483.38
2023-05-05T00:43:04.401Z,101488.72
2023-05-05T00:45:30.983Z,101490.50
2023-05-05T00:47:59.286Z,101507.41
2023-05-05T00:50:28.733Z,101505.00
2023-05-05T00:53:00.360Z,101512.03
2023-05-05T00:55:27.862Z,101519.91
2023-05-05T00:57:54.331Z,101506.78
2023-05-05T01:00:20.846Z,101506.78
2023-05-05T01:02:47.409Z,101503.31
2023-05-05T01:05:16.081Z,101488.69
2023-05-05T01:08:11.745Z,101496.56
2023-05-05T01:10:43.238Z,101499.09
2023-05-05T01:13:50.110Z,101493.94
2023-05-05T01:16:28.810Z,101485.13
2023-05-05T01:19:20.463Z,101491.84
2023-05-05T01:21:56.369Z,101504.88
2023-05-05T01:25:03.805Z,101500.38
2023-05-05T01:27:56.000Z,101502.81
2023-05-05T01:31:00.570Z,101507.84
2023-05-05T01:33:31.546Z,101513.84
2023-05-05T01:36:10.476Z,101516.38
2023-05-05T01:38:41.181Z,101515.63
2023-05-05T01:41:24.172Z,101522.66
2023-05-05T01:43:52.707Z,101518.16
2023-05-05T01:46:21.768Z,101509.22
2023-05-05T01:48:48.972Z,101522.34
2023-05-05T01:51:18.008Z,101515.34
2023-05-05T01:53:47.090Z,101519.84
2023-05-05T01:56:15.698Z,101525.09
2023-05-05T01:58:49.446Z,101541.50
2023-05-05T02:01:18.406Z,101546.13
2023-05-05T02:03:47.359Z,101546.22
2023-05-05T02:06:16.208Z,101556.63
2023-05-05T02:08:44.644Z,101543.38
2023-05-05T02:11:12.367Z,101532.97
2023-05-05T02:13:42.147Z,101498.69
2023-05-05T02:16:09.602Z,101499.56
2023-05-05T02:18:37.461Z,101487.28
2023-05-05T02:21:04.444Z,101480.22
2023-05-05T02:23:31.330Z,101488.94
2023-05-05T02:26:12.566Z,101504.81
2023-05-05T02:28:42.339Z,101508.91
2023-05-05T02:31:10.801Z,101517.16
2023-05-05T02:33:40.291Z,101513.19
2023-05-05T02:36:19.601Z,101510.75
2023-05-05T02:38:48.594Z,101519.72
2023-05-05T02:41:18.738Z,101514.91
2023-05-05T02:43:48.554Z,101514.22
2023-05-05T02:46:16.020Z,101516.13
2023-05-05T02:48:42.481Z,101510.22
2023-05-05T02:51:08.974Z,101507.03
2023-05-05T02:53:35.561Z,101507.44
2023-05-05T02:56:08.055Z,101502.59
2023-05-05T02:58:44.096Z,101505.88
2023-05-05T03:01:25.772Z,101519.31
2023-05-05T03:04:12.055Z,101507.53
2023-05-05T03:06:45.573Z,101514.00
2023-05-05T03:09:17.021Z,101525.81
2023-05-05T03:11:54.690Z,101517.47
2023-05-05T03:14:22.242Z,101521.41
2023-05-05T03:16:49.498Z,101521.72
2023-05-05T03:19:18.648Z,101524.72
2023-05-05T03:21:45.682Z,101530.13
2023-05-05T03:24:16.365Z,101537.34
2023-05-05T03:26:44.136Z,101535.00
2023-05-05T03:29:10.829Z,101546.59
2023-05-05T03:31:37.442Z,101546.84
2023-05-05T03:34:04.154Z,101553.22
2023-05-05T03:36:30.822Z,101554.31
2023-05-05T03:38:58.049Z,101543.34
2023-05-05T03:41:25.028Z,101533.25
2023-05-05T03:43:51.588Z,101530.72
2023-05-05T03:46:18.175Z,101527.25
2023-05-05T03:48:44.846Z,101537.75
2023-05-05T03:51:12.723Z,101541.38
2023-05-05T03:53:39.316Z,101548.50
2023-05-05T03:56:05.795Z,101557.44
2023-05-05T03:58:32.355Z,101567.19
2023-05-05T04:00:58.909Z,101580.31
2023-05-05T04:03:25.578Z,101564.75
2023-05-05T04:05:52.160Z,101574.28
2023-05-05T04:08:18.572Z,101582.25
2023-05-05T04:10:45.696Z,101587.56
2023-05-05T04:13:12.234Z,101594.69
2023-05-05T04:15:43.799Z,101592.97
2023-05-05T04:18:10.330Z,101607.97
2023-05-05T04:20:36.808Z,101603.56
2023-05-05T04:23:03.326Z,101605.41
2023-05-05T04:25:29.788Z,101612.72
2023-05-05T04:27:56.370Z,101613.72
2023-05-05T04:30:22.827Z,101611.38
2023-05-05T04:32:49.254Z,101622.69
2023-05-05T04:35:15.705Z,101619.41
2023-05-05T04:37:42.166Z,101628.16
2023-05-05T04:40:09.500Z,101637.81
2023-05-05T04:42:36.629Z,101640.53
2023-05-05T04:45:03.939Z,101638.59
2023-05-05T04:47:30.483Z,101631.56
2023-05-05T04:49:57.108Z,101630.56
2023-05-05T04:52:23.574Z,101636.47
2023-05-05T04:54:50.020Z,101635.63
2023-05-05T04:57:16.425Z,101642.44
2023-05-05T04:59:42.846Z,101642.28
2023-05-05T05:02:09.373Z,101644.06
2023-05-05T05:04:35.944Z,101645.00
2023-05-05T05:07:02.522Z,101648.44
2023-05-05T05:09:29.038Z,101655.53
2023-05-05T05:12:00.527Z,101663.16
2023-05-05T05:14:28.141Z,101664.84
2023-05-05T05:16:54.872Z,101653.25
2023-05-05T05:19:21.456Z,101651.22
2023-05-05T05:21:47.861Z,101656.88
2023-05-05T05:24:14.291Z,101653.84
2023-05-05T05:26:40.728Z,101657.97
2023-05-05T05:29:07.194Z,101656.13
2023-05-05T05:31:34.503Z,101653.13
2023-05-05T05:34:01.150Z,101659.56
2023-05-05T05:36:27.633Z,101659.03
2023-05-05T05:38:54.096Z,101654.97
2023-05-05T05:41:21.641Z,101655.28
2023-05-05T05:43:48.113Z,101654.47
2023-05-05T05:46:14.761Z,101658.16
2023-05-05T05:48:41.382Z,101661.28
2023-05-05T05:51:07.815Z,101661.88
2023-05-05T05:53:34.337Z,101666.47
2023-05-05T05:56:01.539Z,101661.56
2023-05-05T05:58:27.959Z,101670.66
2023-05-05T06:00:54.612Z,101666.69
2023-05-05T06:05:47.536Z,101671.56
2023-05-05T06:08:14.011Z,101666.00
2023-05-05T06:10:41.083Z,101681.03
2023-05-05T06:13:07.745Z,101673.03
2023-05-05T06:15:34.262Z,101663.16
2023-05-05T06:18:00.748Z,101659.94
2023-05-05T06:20:32.103Z,101659.00
2023-05-05T06:22:58.505Z,101663.34
2023-05-05T06:25:24.987Z,101660.31
2023-05-05T06:27:51.401Z,101663.66
2023-05-05T06:30:18.214Z,101667.06
2023-05-05T06:32:44.688Z,101678.31
2023-05-05T06:35:11.208Z,101680.66
2023-05-05T06:37:37.654Z,101684.00
2023-05-05T06:40:04.672Z,101682.78
2023-05-05T06:42:32.187Z,101684.91
2023-05-05T06:44:58.710Z,101683.34
2023-05-05T06:47:25.322Z,101679.81
2023-05-05T06:49:51.926Z,101685.69
2023-05-05T06:52:18.464Z,101687.28
2023-05-05T06:54:45.858Z,101694.56
2023-05-05T06:57:12.287Z,101690.78
2023-05-05T06:59:38.695Z,101690.47
2023-05-05T07:02:05.189Z,101693.34
2023-05-05T07:04:31.661Z,101685.88
2023-05-05T07:06:58.447Z,101704.78
2023-05-05T07:09:24.892Z,101704.78
2023-05-05T07:11:51.356Z,101707.63
2023-05-05T07:14:17.850Z,101703.00
2023-05-05T07:16:44.329Z,101708.34
2023-05-05T07:19:10.817Z,101706.88
2023-05-05T07:21:37.313Z,101712.78
2023-05-05T07:24:04.095Z,101699.81
2023-05-05T07:26:30.889Z,101702.88
2023-05-05T07:28:58.768Z,101709.94
2023-05-05T07:31:26.318Z,101708.66
2023-05-05T07:33:52.768Z,101713.53
2023-05-05T07:36:19.501Z,101705.53
2023-05-05T07:38:46.106Z,101713.72
2023-05-05T07:41:19.752Z,101710.16
2023-05-05T07:43:46.340Z,101703.19
2023-05-05T07:46:13.818Z,101709.75
2023-05-05T07:48:41.525Z,101706.47
2023-05-05T07:51:08.472Z,101707.41
2023-05-05T07:53:35.079Z,101716.56
2023-05-05T07:56:01.582Z,101713.50
2023-05-05T07:58:28.042Z,101717.66
2023-05-05T08:00:54.557Z,101711.78
2023-05-05T08:03:24.458Z,101702.16
2023-05-05T08:05:55.525Z,101705.81
2023-05-05T08:08:24.957Z,101704.47
2023-05-05T08:10:53.098Z,101713.38
2023-05-05T08:13:19.933Z,101718.22
2023-05-05T08:15:47.284Z,101722.34
2023-05-05T08:18:14.485Z,101714.66
2023-05-05T08:20:41.030Z,101717.31
2023-05-05T08:23:07.802Z,101713.84
2023-05-05T08:25:34.270Z,101714.63
2023-05-05T08:28:00.922Z,101712.66
2023-05-05T08:30:27.526Z,101714.09
2023-05-05T08:32:54.118Z,101715.53
2023-05-05T08:35:20.799Z,101704.13
2023-05-05T08:37:47.258Z,101704.03
2023-05-05T08:40:14.584Z,101712.56
2023-05-05T08:42:42.183Z,101720.47
2023-05-05T08:45:10.667Z,101728.97
2023-05-05T08:47:38.498Z,101722.34
2023-05-05T08:50:08.184Z,101725.38
2023-05-05T08:52:40.466Z,101727.06
2023-05-05T08:55:17.996Z,101729.56
2023-05-05T08:57:51.591Z,101731.22
2023-05-05T09:00:24.102Z,101728.94
2023-05-05T09:02:50.819Z,101729.78
2023-05-05T09:05:18.197Z,101734.94
2023-05-05T09:07:45.168Z,101728.97
2023-05-05T09:10:12.323Z,101731.25
2023-05-05T09:12:42.662Z,101722.97
2023-05-05T09:15:11.563Z,101726.97
2023-05-05T09:17:39.360Z,101724.31
2023-05-05T09:20:10.298Z,101729.94
2023-05-05T09:22:40.847Z,101724.19
2023-05-05T09:25:11.926Z,101722.16
2023-05-05T09:27:42.224Z,101719.97
2023-05-05T09:30:10.765Z,101723.63
2023-05-05T09:32:48.844Z,101717.00
2023-05-05T09:35:18.098Z,101719.56
2023-05-05T09:37:44.920Z,101728.31
2023-05-05T09:40:13.481Z,101727.25
2023-05-05T09:42:40.964Z,101725.91
2023-05-05T09:45:19.300Z,101727.72
2023-05-05T09:47:47.268Z,101727.09
2023-05-05T09:50:16.036Z,101729.00
2023-05-05T09:52:43.299Z,101714.06
2023-05-05T09:55:18.098Z,101716.25
2023-05-05T09:57:44.561Z,101719.94
2023-05-05T10:00:12.456Z,101714.75
2023-05-05T10:02:39.543Z,101718.25
2023-05-05T10:05:09.133Z,101724.25
2023-05-05T10:07:37.063Z,101725.94
2023-05-05T10:10:05.807Z,101716.47
2023-05-05T10:12:35.660Z,101730.09
2023-05-05T10:15:06.786Z,101740.38
2023-05-05T10:17:38.452Z,101761.22
2023-05-05T10:20:09.452Z,101777.25
2023-05-05T10:22:36.256Z,101789.69
2023-05-05T10:25:15.384Z,101775.63
2023-05-05T10:27:50.674Z,101759.47
2023-05-05T10:30:22.630Z,101780.72
2023-05-05T10:33:08.006Z,101770.13
2023-05-05T10:35:44.648Z,101769.78
2023-05-05T10:38:13.003Z,101770.63
2023-05-05T10:40:45.829Z,101763.47
2023-05-05T10:43:14.452Z,101756.06
2023-05-05T10:45:42.718Z,101758.22
2023-05-05T10:48:18.712Z,101762.69
2023-05-05T10:50:53.064Z,101768.97
2023-05-05T10:53:27.740Z,101783.66
2023-05-05T10:56:02.487Z,101776.41
2023-05-05T10:58:46.862Z,101783.72
2023-05-05T11:01:32.423Z,101785.25
2023-05-05T11:04:23.789Z,101808.69
2023-05-05T11:07:10.447Z,101811.50
2023-05-05T11:09:55.653Z,101816.66
2023-05-05T11:12:22.239Z,101813.38
2023-05-05T11:15:26.902Z,101801.16
2023-05-05T11:18:02.631Z,101804.56
2023-05-05T11:20:40.453Z,101800.25
2023-05-05T11:23:06.959Z,101803.56
2023-05-05T11:25:36.666Z,101794.75
2023-05-05T11:28:11.576Z,101801.84
2023-05-05T11:31:01.357Z,101795.84
2023-05-05T11:33:38.934Z,101799.88
2023-05-05T11:36:07.618Z,101807.97
2023-05-05T11:38:40.012Z,101819.53
2023-05-05T11:41:13.994Z,101821.06
2023-05-05T11:43:41.807Z,101819.19
2023-05-05T11:46:15.642Z,101818.00
2023-05-05T11:48:50.092Z,101808.81
2023-05-05T11:51:19.692Z,101819.13
2023-05-05T11:53:48.436Z,101813.22
2023-05-05T11:56:20.499Z,101815.91
2023-05-05T11:59:04.715Z,101817.75
2023-05-05T12:01:31.282Z,101815.22
2023-05-05T12:03:58.081Z,101820.38
2023-05-05T12:06:24.836Z,101809.22
2023-05-05T12:08:51.385Z,101810.44
2023-05-05T12:11:18.776Z,101805.91
2023-05-05T12:13:46.396Z,101796.47
2023-05-05T12:16:14.912Z,101800.78
2023-05-05T12:18:42.426Z,101807.88
2023-05-05T12:21:19.363Z,101805.91
2023-05-05T12:23:46.110Z,101803.22
2023-05-05T12:26:29.701Z,101803.91
2023-05-05T12:29:00.289Z,101809.88
2023-05-05T12:31:37.799Z,101806.19
2023-05-05T12:34:05.385Z,101802.13
2023-05-05T12:36:35.808Z,101799.66
2023-05-05T12:39:05.008Z,101801.94
2023-05-05T12:41:32.453Z,101807.00
2023-05-05T12:44:00.286Z,101803.72
2023-05-05T12:46:29.561Z,101804.47
2023-05-05T12:49:05.250Z,101806.91
2023-05-05T12:51:33.233Z,101797.84
2023-05-05T12:54:11.364Z,101801.59
2023-05-05T12:56:40.549Z,101799.63
2023-05-05T12:59:09.818Z,101797.94
2023-05-05T13:01:37.876Z,101799.16
2023-05-05T13:04:14.476Z,101790.94
2023-05-05T13:06:43.309Z,101790.66
2023-05-05T13:09:22.546Z,101793.53
2023-05-05T13:11:49.106Z,101791.66
2023-05-05T13:14:15.558Z,101789.63
2023-05-05T13:16:42.025Z,101781.28
2023-05-05T13:19:08.529Z,101793.63
2023-05-05T13:21:35.481Z,101805.78
2023-05-05T13:24:18.922Z,101796.16
2023-05-05T13:26:47.762Z,101793.63
2023-05-05T13:29:14.687Z,101796.53
2023-05-05T13:31:41.551Z,101804.97
2023-05-05T13:34:08.189Z,101811.81
2023-05-05T13:36:34.906Z,101818.84
2023-05-05T13:39:01.910Z,101811.03
2023-05-05T13:41:28.409Z,101822.47
2023-05-05T13:43:54.993Z,101813.94
2023-05-05T13:46:21.518Z,101821.97
2023-05-05T13:48:47.998Z,101823.50
2023-05-05T13:51:15.857Z,101825.63
2023-05-05T13:53:46.506Z,101827.56
2023-05-05T13:56:13.678Z,101829.19
2023-05-05T13:58:40.634Z,101821.00
2023-05-05T14:01:07.226Z,101815.00
2023-05-05T14:03:33.884Z,101814.72
2023-05-05T14:06:00.297Z,101811.34
2023-05-05T14:08:26.728Z,101810.50
2023-05-05T14:10:53.176Z,101807.38
2023-05-05T14:13:19.807Z,101805.97
2023-05-05T14:15:47.106Z,101803.19
2023-05-05T14:18:13.545Z,101789.34
2023-05-05T14:20:39.999Z,101797.16
2023-05-05T14:23:06.496Z,101786.31
2023-05-05T14:25:32.972Z,101779.13
2023-05-05T14:27:59.502Z,101770.13
2023-05-05T14:30:25.980Z,101763.72
2023-05-05T14:32:52.874Z,101756.50
2023-05-05T14:35:19.306Z,101767.00
2023-05-05T14:37:45.728Z,101754.78
2023-05-05T14:40:12.226Z,101739.31
2023-05-05T14:42:38.839Z,101740.94
2023-05-05T14:45:06.459Z,101726.97
2023-05-05T14:47:33.708Z,101719.09
2023-05-05T14:50:00.304Z,101708.16
2023-05-05T14:52:26.939Z,101717.16
2023-05-05T14:54:53.398Z,101725.91
2023-05-05T14:57:19.928Z,101737.53
2023-05-05T14:59:46.349Z,101747.78
2023-05-05T15:02:12.775Z,101763.94
2023-05-05T15:04:39.388Z,101762.53
2023-05-05T15:07:05.839Z,101753.28
2023-05-05T15:09:32.357Z,101754.75
2023-05-05T15:11:59.085Z,101752.69
2023-05-05T15:14:26.517Z,101758.41
2023-05-05T15:16:52.932Z,101752.66
2023-05-05T15:19:19.390Z,101759.22
2023-05-05T15:21:45.943Z,101749.38
2023-05-05T15:24:12.411Z,101750.03
2023-05-05T15:26:38.883Z,101744.31
2023-05-05T15:29:05.393Z,101742.44
2023-05-05T15:31:32.026Z,101736.66
2023-05-05T15:33:58.550Z,101737.03
2023-05-05T15:36:25.026Z,101734.03
2023-05-05T15:38:51.659Z,101731.75
2023-05-05T15:41:18.092Z,101728.25
2023-05-05T15:43:44.509Z,101730.00
2023-05-05T15:46:11.029Z,101727.09
2023-05-05T15:48:37.518Z,101722.53
2023-05-05T15:51:04.257Z,101723.41
2023-05-05T15:53:30.747Z,101723.81
2023-05-05T15:55:57.352Z,101727.09
2023-05-05T15:58:23.829Z,101721.81
2023-05-05T16:00:50.350Z,101722.47
2023-05-05T16:03:17.878Z,101721.63
2023-05-05T16:05:44.527Z,101718.63
2023-05-05T16:08:10.963Z,101714.50
2023-05-05T16:10:37.555Z,101714.06
2023-05-05T16:13:04.158Z,101718.09
2023-05-05T16:15:30.920Z,101718.19
2023-05-05T16:17:57.381Z,101711.03
2023-05-05T16:20:24.277Z,101715.22
2023-05-05T16:22:51.179Z,101714.13
2023-05-05T16:25:19.762Z,101714.44
2023-05-05T16:27:46.262Z,101714.88
2023-05-05T16:30:15.268Z,101706.72
2023-05-05T16:32:42.202Z,101703.66
2023-05-05T16:35:09.303Z,101705.06
2023-05-05T16:37:36.074Z,101697.72
2023-05-05T16:40:05.381Z,101696.44
2023-05-05T16:42:31.968Z,101696.56
2023-05-05T16:44:58.377Z,101692.66
2023-05-05T16:47:25.439Z,101698.47
2023-05-05T16:49:52.571Z,101695.84
2023-05-05T16:52:19.151Z,101697.72
2023-05-05T16:54:46.481Z,101693.91
2023-05-05T16:57:13.669Z,101696.25
2023-05-05T16:59:41.774Z,101699.59
2023-05-05T17:02:08.319Z,101699.09
2023-05-05T17:04:34.829Z,101700.88
2023-05-05T17:07:01.352Z,101706.66
2023-05-05T17:09:27.833Z,101698.34
2023-05-05T17:11:54.325Z,101702.44
2023-05-05T17:14:20.861Z,101700.00
2023-05-05T17:16:47.385Z,101708.13
2023-05-05T17:19:13.886Z,101708.94
2023-05-05T17:21:40.409Z,101703.50
2023-05-05T17:24:08.311Z,101706.22
2023-05-05T17:26:34.975Z,101709.50
2023-05-05T17:29:01.432Z,101711.53
2023-05-05T17:31:27.933Z,101711.81
2023-05-05T17:33:54.409Z,101711.38
2023-05-05T17:36:21.229Z,101711.09
2023-05-05T17:38:47.670Z,101705.94
2023-05-05T17:41:14.065Z,101697.78
2023-05-05T17:43:40.952Z,101702.19
2023-05-05T17:46:07.447Z,101705.13
2023-05-05T17:48:34.074Z,101706.06
2023-05-05T17:51:00.491Z,101719.41
2023-05-05T17:53:27.328Z,101713.66
2023-05-05T17:55:54.479Z,101719.81
2023-05-05T17:58:20.930Z,101718.47
2023-05-05T18:00:47.476Z,101722.91
2023-05-05T18:03:14.075Z,101721.31
2023-05-05T18:05:40.582Z,101721.69
2023-05-05T18:08:07.193Z,101724.63
2023-05-05T18:10:33.821Z,101724.13
2023-05-05T18:13:00.473Z,101724.25
2023-05-05T18:15:27.164Z,101727.19
2023-05-05T18:17:53.907Z,101734.75
2023-05-05T18:20:20.320Z,101730.28
2023-05-05T18:22:47.088Z,101723.72
2023-05-05T18:25:13.856Z,101722.34
2023-05-05T18:27:41.154Z,101722.75
2023-05-05T18:30:08.266Z,101723.56
2023-05-05T18:32:34.898Z,101727.72
2023-05-05T18:35:01.430Z,101730.22
2023-05-05T18:37:28.049Z,101736.25
2023-05-05T18:39:54.611Z,101733.66
2023-05-05T18:42:21.031Z,101732.34
2023-05-05T18:44:47.553Z,101741.34
2023-05-05T18:47:13.979Z,101738.34
2023-05-05T18:49:40.458Z,101738.88
2023-05-05T18:52:06.920Z,101744.50
2023-05-05T18:54:34.284Z,101736.91
2023-05-05T18:57:01.720Z,101744.31
2023-05-05T18:59:28.198Z,101734.28
2023-05-05T19:01:54.672Z,101737.28
2023-05-05T19:04:30.801Z,101742.13
2023-05-05T19:06:58.824Z,101739.31
2023-05-05T19:09:25.420Z,101742.56
2023-05-05T19:11:51.866Z,101752.59
2023-05-05T19:14:18.438Z,101749.53
2023-05-05T19:16:44.928Z,101752.53
2023-05-05T19:19:11.428Z,101751.00
2023-05-05T19:21:38.241Z,101754.00
2023-05-05T19:24:08.201Z,101756.88
2023-05-05T19:26:34.731Z,101766.81
2023-05-05T19:29:01.276Z,101767.88
2023-05-05T19:31:27.914Z,101767.28
2023-05-05T19:33:59.123Z,101769.28
2023-05-05T19:36:25.999Z,101771.25
2023-05-05T19:38:52.466Z,101769.00
2023-05-05T19:41:19.177Z,101777.25
2023-05-05T19:43:49.978Z,101775.13
2023-05-05T19:46:17.203Z,101776.34
2023-05-05T19:48:44.077Z,101786.97
2023-05-05T19:51:10.489Z,101778.34
2023-05-05T19:53:36.942Z,101782.16
2023-05-05T19:56:04.774Z,101775.38
2023-05-05T19:58:34.016Z,101782.56
2023-05-05T20:01:00.527Z,101779.34
2023-05-05T20:03:27.095Z,101780.63
2023-05-05T20:05:53.657Z,101785.19
2023-05-05T20:08:20.252Z,101785.34
2023-05-05T20:10:46.910Z,101787.28
2023-05-05T20:13:13.708Z,101784.88
2023-05-05T20:15:40.167Z,101786.06
2023-05-05T20:18:06.789Z,101780.16
2023-05-05T20:20:33.397Z,101781.19
2023-05-05T20:22:59.800Z,101778.84
2023-05-05T20:25:26.863Z,101785.06
2023-05-05T20:27:53.300Z,101789.63
2023-05-05T20:30:20.108Z,101790.63
2023-05-05T20:32:46.602Z,101793.31
2023-05-05T20:35:13.135Z,101795.09
2023-05-05T20:37:39.659Z,101794.47
2023-05-05T20:40:07.249Z,101804.88
2023-05-05T20:42:33.931Z,101804.03
2023-05-05T20:45:00.933Z,101802.41
2023-05-05T20:47:27.405Z,101787.63
2023-05-05T20:49:54.275Z,101798.03
2023-05-05T20:52:20.849Z,101792.09
2023-05-05T20:54:47.393Z,101788.75
2023-05-05T20:57:13.886Z,101788.91
2023-05-05T20:59:40.374Z,101778.75
2023-05-05T21:02:07.431Z,101784.13
2023-05-05T21:04:33.941Z,101782.50
2023-05-05T21:07:00.527Z,101782.66
2023-05-05T21:09:27.045Z,101787.22
2023-05-05T21:11:53.516Z,101782.22
2023-05-05T21:14:20.057Z,101784.19
2023-05-05T21:16:46.606Z,101787.00
2023-05-05T21:19:13.173Z,101783.59
2023-05-05T21:21:39.603Z,101780.19
2023-05-05T21:24:08.099Z,101777.72
2023-05-05T21:26:34.747Z,101778.81
2023-05-05T21:29:01.513Z,101784.19
2023-05-05T21:31:27.942Z,101780.88
2023-05-05T21:33:54.429Z,101781.84
2023-05-05T21:36:21.260Z,101789.00
2023-05-05T21:38:47.873Z,101785.78
2023-05-05T21:41:14.400Z,101786.91
2023-05-05T21:43:41.128Z,101793.22
2023-05-05T21:46:07.776Z,101783.88
2023-05-05T21:48:34.301Z,101784.13
2023-05-05T21:51:00.904Z,101786.03
2023-05-05T21:53:27.371Z,101786.16
2023-05-05T21:55:53.800Z,101785.47
2023-05-05T21:58:20.397Z,101781.31
2023-05-05T22:00:49.693Z,101779.81
2023-05-05T22:03:16.484Z,101777.34
2023-05-05T22:05:43.076Z,101774.03
2023-05-05T22:08:09.590Z,101773.25
2023-05-05T22:10:36.015Z,101777.78
2023-05-05T22:13:02.480Z,101775.28
2023-05-05T22:15:35.711Z,101771.09
2023-05-05T22:18:09.675Z,101774.59
2023-05-05T22:20:37.123Z,101778.97
2023-05-05T22:23:03.538Z,101778.22
2023-05-05T22:25:29.970Z,101781.84
2023-05-05T22:27:56.553Z,101784.47
2023-05-05T22:30:22.971Z,101786.19
2023-05-05T22:32:49.465Z,101786.03
2023-05-05T22:35:15.892Z,101774.59
2023-05-05T22:37:42.353Z,101775.50
2023-05-05T22:40:10.025Z,101779.81
2023-05-05T22:42:36.780Z,101777.28
2023-05-05T22:45:03.289Z,101777.34
2023-05-05T22:47:30.865Z,101779.09
2023-05-05T22:49:57.832Z,101777.34
2023-05-05T22:52:25.674Z,101772.13
2023-05-05T22:54:52.200Z,101771.22
2023-05-05T22:57:18.668Z,101761.63
2023-05-05T22:59:45.085Z,101775.47
2023-05-05T23:02:11.525Z,101774.44
2023-05-05T23:04:37.995Z,101769.16
2023-05-05T23:07:04.495Z,101770.84
2023-05-05T23:09:30.991Z,101773.38
2023-05-05T23:11:57.405Z,101768.94
2023-05-05T23:14:23.882Z,101768.03
2023-05-05T23:16:50.448Z,101771.56
2023-05-05T23:19:16.951Z,101770.72
2023-05-05T23:21:52.696Z,101762.03
2023-05-05T23:24:20.082Z,101769.03
2023-05-05T23:26:46.510Z,101764.72
2023-05-05T23:29:12.969Z,101762.09
2023-05-05T23:31:39.413Z,101764.72
2023-05-05T23:34:05.838Z,101766.47
2023-05-05T23:36:32.280Z,101750.94
2023-05-05T23:38:58.707Z,101751.03
2023-05-05T23:41:25.277Z,101765.00
2023-05-05T23:43:51.730Z,101759.94
2023-05-05T23:46:18.238Z,101763.38
2023-05-05T23:48:44.791Z,101760.81
2023-05-05T23:51:11.246Z,101756.53
2023-05-05T23:53:37.680Z,101759.97
2023-05-05T23:56:04.339Z,101754.75
2023-05-05T23:58:30.750Z,101750.38
